sensor_id;sensor_type;location;lat;lon;timestamp;temperature;humidity
71155;DHT22;59375;53.216;5.728;2022-11-15T00:00:25;8.10;99.90
71155;DHT22;59375;53.216;5.728;2022-11-15T00:02:52;8.10;99.90
71155;DHT22;59375;53.216;5.728;2022-11-15T00:05:17;8.10;99.90
71155;DHT22;59375;53.216;5.728;2022-11-15T00:07:43;8.10;99.90
71155;DHT22;59375;53.216;5.728;2022-11-15T00:10:08;8.10;99.90
71155;DHT22;59375;53.216;5.728;2022-11-15T00:12:33;8.10;99.90
71155;DHT22;59375;53.216;5.728;2022-11-15T00:14:59;8.00;99.90
71155;DHT22;59375;53.216;5.728;2022-11-15T00:17:24;8.00;99.90
71155;DHT22;59375;53.216;5.728;2022-11-15T00:19:50;8.00;99.90
71155;DHT22;59375;53.216;5.728;2022-11-15T00:22:15;8.00;99.90
71155;DHT22;59375;53.216;5.728;2022-11-15T00:24:41;8.00;99.90
71155;DHT22;59375;53.216;5.728;2022-11-15T00:27:06;8.00;99.90
71155;DHT22;59375;53.216;5.728;2022-11-15T00:29:31;8.10;99.90
71155;DHT22;59375;53.216;5.728;2022-11-15T00:31:57;8.10;99.90
71155;DHT22;59375;53.216;5.728;2022-11-15T00:34:22;8.00;99.90
71155;DHT22;59375;53.216;5.728;2022-11-15T00:36:48;8.00;99.90
71155;DHT22;59375;53.216;5.728;2022-11-15T00:39:13;8.00;99.90
71155;DHT22;59375;53.216;5.728;2022-11-15T00:41:39;8.00;99.90
71155;DHT22;59375;53.216;5.728;2022-11-15T00:44:04;8.00;99.90
71155;DHT22;59375;53.216;5.728;2022-11-15T00:46:29;8.00;99.90
71155;DHT22;59375;53.216;5.728;2022-11-15T00:48:55;7.90;99.90
71155;DHT22;59375;53.216;5.728;2022-11-15T00:51:20;7.90;99.90
71155;DHT22;59375;53.216;5.728;2022-11-15T00:53:46;7.90;99.90
71155;DHT22;59375;53.216;5.728;2022-11-15T00:56:11;7.90;99.90
71155;DHT22;59375;53.216;5.728;2022-11-15T00:58:37;7.80;99.90
71155;DHT22;59375;53.216;5.728;2022-11-15T01:01:06;7.80;99.90
71155;DHT22;59375;53.216;5.728;2022-11-15T01:03:33;7.80;99.90
71155;DHT22;59375;53.216;5.728;2022-11-15T01:05:59;7.70;99.90
71155;DHT22;59375;53.216;5.728;2022-11-15T01:08:24;7.70;99.90
71155;DHT22;59375;53.216;5.728;2022-11-15T01:10:50;7.70;99.90
71155;DHT22;59375;53.216;5.728;2022-11-15T01:13:15;7.60;99.90
71155;DHT22;59375;53.216;5.728;2022-11-15T01:15:41;7.60;99.90
71155;DHT22;59375;53.216;5.728;2022-11-15T01:18:07;7.60;99.90
71155;DHT22;59375;53.216;5.728;2022-11-15T01:20:32;7.60;99.90
71155;DHT22;59375;53.216;5.728;2022-11-15T01:22:58;7.60;99.90
71155;DHT22;59375;53.216;5.728;2022-11-15T01:25:23;7.60;99.90
71155;DHT22;59375;53.216;5.728;2022-11-15T01:27:48;7.50;99.90
71155;DHT22;59375;53.216;5.728;2022-11-15T01:30:14;7.50;99.90
71155;DHT22;59375;53.216;5.728;2022-11-15T01:32:39;7.50;99.90
71155;DHT22;59375;53.216;5.728;2022-11-15T01:35:05;7.50;99.90
71155;DHT22;59375;53.216;5.728;2022-11-15T01:37:30;7.50;99.90
71155;DHT22;59375;53.216;5.728;2022-11-15T01:39:56;7.50;99.90
71155;DHT22;59375;53.216;5.728;2022-11-15T01:42:21;7.40;99.90
71155;DHT22;59375;53.216;5.728;2022-11-15T01:44:47;7.30;99.90
71155;DHT22;59375;53.216;5.728;2022-11-15T01:47:20;7.30;99.90
71155;DHT22;59375;53.216;5.728;2022-11-15T01:49:50;7.30;99.90
71155;DHT22;59375;53.216;5.728;2022-11-15T01:52:17;7.30;99.90
71155;DHT22;59375;53.216;5.728;2022-11-15T01:54:44;7.20;99.90
71155;DHT22;59375;53.216;5.728;2022-11-15T01:57:10;7.10;99.90
71155;DHT22;59375;53.216;5.728;2022-11-15T01:59:37;7.00;99.90
71155;DHT22;59375;53.216;5.728;2022-11-15T02:02:04;7.00;99.90
71155;DHT22;59375;53.216;5.728;2022-11-15T02:04:41;6.90;99.90
71155;DHT22;59375;53.216;5.728;2022-11-15T02:07:06;6.90;99.90
71155;DHT22;59375;53.216;5.728;2022-11-15T02:09:35;6.90;99.90
71155;DHT22;59375;53.216;5.728;2022-11-15T02:12:01;6.80;99.90
71155;DHT22;59375;53.216;5.728;2022-11-15T02:14:26;6.80;99.90
71155;DHT22;59375;53.216;5.728;2022-11-15T02:16:58;6.80;99.90
71155;DHT22;59375;53.216;5.728;2022-11-15T02:19:31;6.70;99.90
71155;DHT22;59375;53.216;5.728;2022-11-15T02:24:57;6.70;99.90
71155;DHT22;59375;53.216;5.728;2022-11-15T02:27:35;6.70;99.90
71155;DHT22;59375;53.216;5.728;2022-11-15T02:30:20;6.70;99.90
71155;DHT22;59375;53.216;5.728;2022-11-15T02:32:48;6.70;99.90
71155;DHT22;59375;53.216;5.728;2022-11-15T02:35:23;6.70;99.90
71155;DHT22;59375;53.216;5.728;2022-11-15T02:37:55;6.70;99.90
71155;DHT22;59375;53.216;5.728;2022-11-15T02:40:27;6.80;99.90
71155;DHT22;59375;53.216;5.728;2022-11-15T02:42:55;6.80;99.90
71155;DHT22;59375;53.216;5.728;2022-11-15T02:45:46;6.80;99.90
71155;DHT22;59375;53.216;5.728;2022-11-15T02:48:13;6.90;99.90
71155;DHT22;59375;53.216;5.728;2022-11-15T02:50:40;6.90;99.90
71155;DHT22;59375;53.216;5.728;2022-11-15T02:53:06;6.90;99.90
71155;DHT22;59375;53.216;5.728;2022-11-15T02:55:36;6.90;99.90
71155;DHT22;59375;53.216;5.728;2022-11-15T03:00:34;6.90;99.90
71155;DHT22;59375;53.216;5.728;2022-11-15T03:03:14;6.90;99.90
71155;DHT22;59375;53.216;5.728;2022-11-15T03:05:52;6.90;99.90
71155;DHT22;59375;53.216;5.728;2022-11-15T03:08:22;6.90;99.90
71155;DHT22;59375;53.216;5.728;2022-11-15T03:11:03;6.90;99.90
71155;DHT22;59375;53.216;5.728;2022-11-15T03:16:57;7.00;99.90
71155;DHT22;59375;53.216;5.728;2022-11-15T03:19:19;7.00;99.90
71155;DHT22;59375;53.216;5.728;2022-11-15T03:21:48;6.90;99.90
71155;DHT22;59375;53.216;5.728;2022-11-15T03:24:14;6.90;99.90
71155;DHT22;59375;53.216;5.728;2022-11-15T03:26:41;6.90;99.90
71155;DHT22;59375;53.216;5.728;2022-11-15T03:29:16;6.90;99.90
71155;DHT22;59375;53.216;5.728;2022-11-15T03:31:44;6.90;99.90
71155;DHT22;59375;53.216;5.728;2022-11-15T03:34:15;7.00;99.90
71155;DHT22;59375;53.216;5.728;2022-11-15T03:36:44;7.00;99.90
71155;DHT22;59375;53.216;5.728;2022-11-15T03:39:10;7.00;99.90
71155;DHT22;59375;53.216;5.728;2022-11-15T03:41:43;7.00;99.90
71155;DHT22;59375;53.216;5.728;2022-11-15T03:46:47;7.00;99.90
71155;DHT22;59375;53.216;5.728;2022-11-15T03:49:19;7.00;99.90
71155;DHT22;59375;53.216;5.728;2022-11-15T03:51:45;7.00;99.90
71155;DHT22;59375;53.216;5.728;2022-11-15T03:54:11;7.00;99.90
71155;DHT22;59375;53.216;5.728;2022-11-15T03:56:37;7.00;99.90
71155;DHT22;59375;53.216;5.728;2022-11-15T03:59:02;7.00;99.90
71155;DHT22;59375;53.216;5.728;2022-11-15T04:01:28;7.00;99.90
71155;DHT22;59375;53.216;5.728;2022-11-15T04:03:53;7.00;99.90
71155;DHT22;59375;53.216;5.728;2022-11-15T04:06:18;7.00;99.90
71155;DHT22;59375;53.216;5.728;2022-11-15T04:08:44;7.00;99.90
71155;DHT22;59375;53.216;5.728;2022-11-15T04:11:09;7.00;99.90
71155;DHT22;59375;53.216;5.728;2022-11-15T04:13:35;7.10;99.90
71155;DHT22;59375;53.216;5.728;2022-11-15T04:16:00;7.10;99.90
71155;DHT22;59375;53.216;5.728;2022-11-15T04:18:26;7.10;99.90
71155;DHT22;59375;53.216;5.728;2022-11-15T04:20:51;7.10;99.90
71155;DHT22;59375;53.216;5.728;2022-11-15T04:23:35;7.10;99.90
71155;DHT22;59375;53.216;5.728;2022-11-15T04:26:33;7.10;99.90
71155;DHT22;59375;53.216;5.728;2022-11-15T04:28:58;7.10;99.90
71155;DHT22;59375;53.216;5.728;2022-11-15T04:31:42;7.10;99.90
71155;DHT22;59375;53.216;5.728;2022-11-15T04:34:08;7.20;99.90
71155;DHT22;59375;53.216;5.728;2022-11-15T04:36:33;7.20;99.90
71155;DHT22;59375;53.216;5.728;2022-11-15T04:39:17;7.20;99.90
71155;DHT22;59375;53.216;5.728;2022-11-15T04:41:43;7.20;99.90
71155;DHT22;59375;53.216;5.728;2022-11-15T04:44:08;7.20;99.90
71155;DHT22;59375;53.216;5.728;2022-11-15T04:46:34;7.20;99.90
71155;DHT22;59375;53.216;5.728;2022-11-15T04:49:00;7.30;99.90
71155;DHT22;59375;53.216;5.728;2022-11-15T04:51:25;7.30;99.90
71155;DHT22;59375;53.216;5.728;2022-11-15T04:53:51;7.30;99.90
71155;DHT22;59375;53.216;5.728;2022-11-15T04:56:16;7.30;99.90
71155;DHT22;59375;53.216;5.728;2022-11-15T04:58:42;7.40;99.90
71155;DHT22;59375;53.216;5.728;2022-11-15T05:01:07;7.40;99.90
71155;DHT22;59375;53.216;5.728;2022-11-15T05:03:33;7.40;99.90
71155;DHT22;59375;53.216;5.728;2022-11-15T05:06:17;7.40;99.90
71155;DHT22;59375;53.216;5.728;2022-11-15T05:08:42;7.40;99.90
71155;DHT22;59375;53.216;5.728;2022-11-15T05:11:08;7.50;99.90
71155;DHT22;59375;53.216;5.728;2022-11-15T05:13:33;7.50;99.90
71155;DHT22;59375;53.216;5.728;2022-11-15T05:15:59;7.50;99.90
71155;DHT22;59375;53.216;5.728;2022-11-15T05:18:24;7.60;99.90
71155;DHT22;59375;53.216;5.728;2022-11-15T05:20:49;7.60;99.90
71155;DHT22;59375;53.216;5.728;2022-11-15T05:23:15;7.60;99.90
71155;DHT22;59375;53.216;5.728;2022-11-15T05:25:40;7.60;99.90
71155;DHT22;59375;53.216;5.728;2022-11-15T05:28:06;7.70;99.90
71155;DHT22;59375;53.216;5.728;2022-11-15T05:30:31;7.70;99.90
71155;DHT22;59375;53.216;5.728;2022-11-15T05:32:56;7.70;99.90
71155;DHT22;59375;53.216;5.728;2022-11-15T05:35:30;7.80;99.90
71155;DHT22;59375;53.216;5.728;2022-11-15T05:37:56;7.80;99.90
71155;DHT22;59375;53.216;5.728;2022-11-15T05:40:22;7.80;99.90
71155;DHT22;59375;53.216;5.728;2022-11-15T05:42:48;7.80;99.90
71155;DHT22;59375;53.216;5.728;2022-11-15T05:45:14;7.90;99.90
71155;DHT22;59375;53.216;5.728;2022-11-15T05:47:39;7.90;99.90
71155;DHT22;59375;53.216;5.728;2022-11-15T05:50:05;8.00;99.90
71155;DHT22;59375;53.216;5.728;2022-11-15T05:52:33;8.00;99.90
71155;DHT22;59375;53.216;5.728;2022-11-15T05:55:00;8.10;99.90
71155;DHT22;59375;53.216;5.728;2022-11-15T05:57:26;8.10;99.90
71155;DHT22;59375;53.216;5.728;2022-11-15T05:59:52;8.20;99.90
71155;DHT22;59375;53.216;5.728;2022-11-15T06:02:18;8.20;99.90
71155;DHT22;59375;53.216;5.728;2022-11-15T06:04:44;8.20;99.90
71155;DHT22;59375;53.216;5.728;2022-11-15T06:07:09;8.30;99.90
71155;DHT22;59375;53.216;5.728;2022-11-15T06:09:35;8.30;99.90
71155;DHT22;59375;53.216;5.728;2022-11-15T06:12:00;8.30;99.90
71155;DHT22;59375;53.216;5.728;2022-11-15T06:14:26;8.30;99.90
71155;DHT22;59375;53.216;5.728;2022-11-15T06:16:51;8.40;99.90
71155;DHT22;59375;53.216;5.728;2022-11-15T06:19:16;8.40;99.90
71155;DHT22;59375;53.216;5.728;2022-11-15T06:21:42;8.50;99.90
71155;DHT22;59375;53.216;5.728;2022-11-15T06:24:07;8.50;99.90
71155;DHT22;59375;53.216;5.728;2022-11-15T06:26:33;8.50;99.90
71155;DHT22;59375;53.216;5.728;2022-11-15T06:28:58;8.60;99.90
71155;DHT22;59375;53.216;5.728;2022-11-15T06:31:24;8.60;99.90
71155;DHT22;59375;53.216;5.728;2022-11-15T06:33:49;8.70;99.90
71155;DHT22;59375;53.216;5.728;2022-11-15T06:36:15;8.70;99.90
71155;DHT22;59375;53.216;5.728;2022-11-15T06:38:42;8.70;99.90
71155;DHT22;59375;53.216;5.728;2022-11-15T06:41:08;8.80;99.90
71155;DHT22;59375;53.216;5.728;2022-11-15T06:43:34;8.80;99.90
71155;DHT22;59375;53.216;5.728;2022-11-15T06:46:03;8.80;99.90
71155;DHT22;59375;53.216;5.728;2022-11-15T06:48:29;8.90;99.90
71155;DHT22;59375;53.216;5.728;2022-11-15T06:50:56;8.90;99.90
71155;DHT22;59375;53.216;5.728;2022-11-15T06:53:22;9.00;99.90
71155;DHT22;59375;53.216;5.728;2022-11-15T06:55:48;9.00;99.90
71155;DHT22;59375;53.216;5.728;2022-11-15T06:58:13;9.00;99.90
71155;DHT22;59375;53.216;5.728;2022-11-15T07:00:39;9.00;99.90
71155;DHT22;59375;53.216;5.728;2022-11-15T07:03:05;9.10;99.90
71155;DHT22;59375;53.216;5.728;2022-11-15T07:05:31;9.10;99.90
71155;DHT22;59375;53.216;5.728;2022-11-15T07:07:56;9.10;99.90
71155;DHT22;59375;53.216;5.728;2022-11-15T07:10:22;9.10;99.90
71155;DHT22;59375;53.216;5.728;2022-11-15T07:12:50;9.20;99.90
71155;DHT22;59375;53.216;5.728;2022-11-15T07:15:16;9.20;99.90
71155;DHT22;59375;53.216;5.728;2022-11-15T07:17:42;9.20;99.90
71155;DHT22;59375;53.216;5.728;2022-11-15T07:20:07;9.20;99.90
71155;DHT22;59375;53.216;5.728;2022-11-15T07:22:33;9.20;99.90
71155;DHT22;59375;53.216;5.728;2022-11-15T07:24:58;9.30;99.90
71155;DHT22;59375;53.216;5.728;2022-11-15T07:27:24;9.20;99.90
71155;DHT22;59375;53.216;5.728;2022-11-15T07:29:49;9.30;99.90
71155;DHT22;59375;53.216;5.728;2022-11-15T07:32:14;9.30;99.90
71155;DHT22;59375;53.216;5.728;2022-11-15T07:34:40;9.40;99.90
71155;DHT22;59375;53.216;5.728;2022-11-15T07:37:05;9.40;99.90
71155;DHT22;59375;53.216;5.728;2022-11-15T07:39:31;9.40;99.90
71155;DHT22;59375;53.216;5.728;2022-11-15T07:41:56;9.50;99.90
71155;DHT22;59375;53.216;5.728;2022-11-15T07:44:42;9.50;99.90
71155;DHT22;59375;53.216;5.728;2022-11-15T07:47:07;9.60;99.90
71155;DHT22;59375;53.216;5.728;2022-11-15T07:49:32;9.50;99.90
71155;DHT22;59375;53.216;5.728;2022-11-15T07:51:58;9.60;99.90
71155;DHT22;59375;53.216;5.728;2022-11-15T07:54:23;9.70;99.90
71155;DHT22;59375;53.216;5.728;2022-11-15T07:56:49;9.70;99.90
71155;DHT22;59375;53.216;5.728;2022-11-15T07:59:14;9.70;99.90
71155;DHT22;59375;53.216;5.728;2022-11-15T08:01:40;9.70;99.90
71155;DHT22;59375;53.216;5.728;2022-11-15T08:04:05;9.80;99.90
71155;DHT22;59375;53.216;5.728;2022-11-15T08:06:30;9.80;99.90
71155;DHT22;59375;53.216;5.728;2022-11-15T08:08:56;9.80;99.90
71155;DHT22;59375;53.216;5.728;2022-11-15T08:11:21;9.90;99.90
71155;DHT22;59375;53.216;5.728;2022-11-15T08:13:47;9.90;99.90
71155;DHT22;59375;53.216;5.728;2022-11-15T08:16:12;9.90;99.90
71155;DHT22;59375;53.216;5.728;2022-11-15T08:18:38;9.90;99.90
71155;DHT22;59375;53.216;5.728;2022-11-15T08:21:03;10.00;99.90
71155;DHT22;59375;53.216;5.728;2022-11-15T08:23:29;10.00;99.90
71155;DHT22;59375;53.216;5.728;2022-11-15T08:26:01;10.10;99.90
71155;DHT22;59375;53.216;5.728;2022-11-15T08:28:27;10.10;99.90
71155;DHT22;59375;53.216;5.728;2022-11-15T08:30:52;10.10;99.90
71155;DHT22;59375;53.216;5.728;2022-11-15T08:33:18;10.20;99.90
71155;DHT22;59375;53.216;5.728;2022-11-15T08:35:43;10.20;99.90
71155;DHT22;59375;53.216;5.728;2022-11-15T08:38:09;10.20;99.90
71155;DHT22;59375;53.216;5.728;2022-11-15T08:40:35;10.20;99.90
71155;DHT22;59375;53.216;5.728;2022-11-15T08:43:00;10.30;99.90
71155;DHT22;59375;53.216;5.728;2022-11-15T08:45:28;10.30;99.90
71155;DHT22;59375;53.216;5.728;2022-11-15T08:47:54;10.30;99.90
71155;DHT22;59375;53.216;5.728;2022-11-15T08:50:19;10.40;99.90
71155;DHT22;59375;53.216;5.728;2022-11-15T08:52:44;10.40;99.90
71155;DHT22;59375;53.216;5.728;2022-11-15T08:55:10;10.50;99.90
71155;DHT22;59375;53.216;5.728;2022-11-15T08:57:35;10.50;99.90
71155;DHT22;59375;53.216;5.728;2022-11-15T09:00:01;10.60;99.90
71155;DHT22;59375;53.216;5.728;2022-11-15T09:02:26;10.50;99.90
71155;DHT22;59375;53.216;5.728;2022-11-15T09:04:52;10.60;99.90
71155;DHT22;59375;53.216;5.728;2022-11-15T09:07:17;10.60;99.90
71155;DHT22;59375;53.216;5.728;2022-11-15T09:09:43;10.60;99.90
71155;DHT22;59375;53.216;5.728;2022-11-15T09:12:08;10.60;99.90
71155;DHT22;59375;53.216;5.728;2022-11-15T09:14:34;10.70;99.90
71155;DHT22;59375;53.216;5.728;2022-11-15T09:16:59;10.70;99.90
71155;DHT22;59375;53.216;5.728;2022-11-15T09:19:25;10.80;99.90
71155;DHT22;59375;53.216;5.728;2022-11-15T09:21:50;10.90;99.90
71155;DHT22;59375;53.216;5.728;2022-11-15T09:24:16;11.00;99.90
71155;DHT22;59375;53.216;5.728;2022-11-15T09:26:42;11.10;99.90
71155;DHT22;59375;53.216;5.728;2022-11-15T09:29:08;11.20;99.90
71155;DHT22;59375;53.216;5.728;2022-11-15T09:31:33;11.20;99.90
71155;DHT22;59375;53.216;5.728;2022-11-15T09:33:58;11.30;99.90
71155;DHT22;59375;53.216;5.728;2022-11-15T09:36:24;11.30;99.90
71155;DHT22;59375;53.216;5.728;2022-11-15T09:38:49;11.30;99.90
71155;DHT22;59375;53.216;5.728;2022-11-15T09:46:17;11.40;99.90
71155;DHT22;59375;53.216;5.728;2022-11-15T09:51:13;11.60;99.90
71155;DHT22;59375;53.216;5.728;2022-11-15T09:53:48;11.70;99.90
71155;DHT22;59375;53.216;5.728;2022-11-15T09:56:21;11.70;99.90
71155;DHT22;59375;53.216;5.728;2022-11-15T09:58:56;11.60;99.90
71155;DHT22;59375;53.216;5.728;2022-11-15T10:01:33;11.60;99.90
71155;DHT22;59375;53.216;5.728;2022-11-15T10:04:01;11.50;99.90
71155;DHT22;59375;53.216;5.728;2022-11-15T10:06:26;11.40;99.90
71155;DHT22;59375;53.216;5.728;2022-11-15T10:09:01;11.30;99.90
71155;DHT22;59375;53.216;5.728;2022-11-15T10:11:27;11.30;99.90
71155;DHT22;59375;53.216;5.728;2022-11-15T10:13:54;11.30;99.90
71155;DHT22;59375;53.216;5.728;2022-11-15T10:21:48;11.30;99.90
71155;DHT22;59375;53.216;5.728;2022-11-15T10:24:17;11.30;99.90
71155;DHT22;59375;53.216;5.728;2022-11-15T10:26:47;11.30;99.90
71155;DHT22;59375;53.216;5.728;2022-11-15T10:29:19;11.30;99.90
71155;DHT22;59375;53.216;5.728;2022-11-15T10:31:45;11.40;99.90
71155;DHT22;59375;53.216;5.728;2022-11-15T10:34:17;11.40;99.90
71155;DHT22;59375;53.216;5.728;2022-11-15T10:36:58;11.40;99.90
71155;DHT22;59375;53.216;5.728;2022-11-15T10:39:24;11.50;99.90
71155;DHT22;59375;53.216;5.728;2022-11-15T10:41:50;11.50;99.90
71155;DHT22;59375;53.216;5.728;2022-11-15T10:46:41;11.60;99.90
71155;DHT22;59375;53.216;5.728;2022-11-15T10:52:00;11.60;99.90
71155;DHT22;59375;53.216;5.728;2022-11-15T10:54:29;11.60;99.90
71155;DHT22;59375;53.216;5.728;2022-11-15T10:56:57;11.60;99.90
71155;DHT22;59375;53.216;5.728;2022-11-15T10:59:25;11.60;99.90
71155;DHT22;59375;53.216;5.728;2022-11-15T11:01:51;11.70;99.90
71155;DHT22;59375;53.216;5.728;2022-11-15T11:04:17;11.70;99.90
71155;DHT22;59375;53.216;5.728;2022-11-15T11:09:23;11.80;99.90
71155;DHT22;59375;53.216;5.728;2022-11-15T11:11:50;11.90;99.90
71155;DHT22;59375;53.216;5.728;2022-11-15T11:14:20;11.90;99.90
71155;DHT22;59375;53.216;5.728;2022-11-15T11:16:50;12.00;99.90
71155;DHT22;59375;53.216;5.728;2022-11-15T11:19:23;12.00;99.90
71155;DHT22;59375;53.216;5.728;2022-11-15T11:22:02;12.10;99.90
71155;DHT22;59375;53.216;5.728;2022-11-15T11:24:33;12.10;99.90
71155;DHT22;59375;53.216;5.728;2022-11-15T11:27:13;12.10;99.90
71155;DHT22;59375;53.216;5.728;2022-11-15T11:35:02;12.10;99.90
71155;DHT22;59375;53.216;5.728;2022-11-15T11:37:37;12.00;99.90
71155;DHT22;59375;53.216;5.728;2022-11-15T11:43:00;12.00;99.90
71155;DHT22;59375;53.216;5.728;2022-11-15T11:48:00;12.10;99.90
71155;DHT22;59375;53.216;5.728;2022-11-15T11:50:27;12.10;99.90
71155;DHT22;59375;53.216;5.728;2022-11-15T11:53:11;12.20;99.90
71155;DHT22;59375;53.216;5.728;2022-11-15T11:55:47;12.20;99.90
71155;DHT22;59375;53.216;5.728;2022-11-15T11:58:19;12.20;99.90
71155;DHT22;59375;53.216;5.728;2022-11-15T12:00:51;12.30;99.90
71155;DHT22;59375;53.216;5.728;2022-11-15T12:03:28;12.60;99.90
71155;DHT22;59375;53.216;5.728;2022-11-15T12:05:56;12.90;99.90
71155;DHT22;59375;53.216;5.728;2022-11-15T12:10:49;14.00;99.90
71155;DHT22;59375;53.216;5.728;2022-11-15T12:13:16;14.20;99.90
71155;DHT22;59375;53.216;5.728;2022-11-15T12:15:45;14.10;99.90
71155;DHT22;59375;53.216;5.728;2022-11-15T12:18:12;14.10;99.90
71155;DHT22;59375;53.216;5.728;2022-11-15T12:20:40;14.10;99.90
71155;DHT22;59375;53.216;5.728;2022-11-15T12:23:12;14.20;99.90
71155;DHT22;59375;53.216;5.728;2022-11-15T12:28:18;14.70;99.90
71155;DHT22;59375;53.216;5.728;2022-11-15T12:36:00;15.40;99.90
71155;DHT22;59375;53.216;5.728;2022-11-15T12:41:21;14.90;99.90
71155;DHT22;59375;53.216;5.728;2022-11-15T12:43:47;14.60;99.90
71155;DHT22;59375;53.216;5.728;2022-11-15T12:48:47;14.10;99.90
71155;DHT22;59375;53.216;5.728;2022-11-15T12:51:12;14.20;99.90
71155;DHT22;59375;53.216;5.728;2022-11-15T12:53:38;14.20;99.90
71155;DHT22;59375;53.216;5.728;2022-11-15T12:58:42;14.40;99.90
71155;DHT22;59375;53.216;5.728;2022-11-15T13:01:08;14.50;99.90
71155;DHT22;59375;53.216;5.728;2022-11-15T13:03:34;14.60;99.90
71155;DHT22;59375;53.216;5.728;2022-11-15T13:06:00;14.90;99.90
71155;DHT22;59375;53.216;5.728;2022-11-15T13:08:40;15.10;99.90
71155;DHT22;59375;53.216;5.728;2022-11-15T13:13:50;15.60;99.90
71155;DHT22;59375;53.216;5.728;2022-11-15T13:16:20;15.70;99.90
71155;DHT22;59375;53.216;5.728;2022-11-15T13:18:52;15.90;99.90
71155;DHT22;59375;53.216;5.728;2022-11-15T13:21:24;16.00;99.90
71155;DHT22;59375;53.216;5.728;2022-11-15T13:24:16;16.10;99.90
71155;DHT22;59375;53.216;5.728;2022-11-15T13:26:41;16.00;99.90
71155;DHT22;59375;53.216;5.728;2022-11-15T13:29:17;16.00;99.90
71155;DHT22;59375;53.216;5.728;2022-11-15T13:31:43;15.90;99.90
71155;DHT22;59375;53.216;5.728;2022-11-15T13:34:22;15.80;99.90
71155;DHT22;59375;53.216;5.728;2022-11-15T13:36:49;15.80;99.90
71155;DHT22;59375;53.216;5.728;2022-11-15T13:39:25;15.70;99.90
71155;DHT22;59375;53.216;5.728;2022-11-15T13:41:51;15.50;99.90
71155;DHT22;59375;53.216;5.728;2022-11-15T13:44:26;15.50;99.90
71155;DHT22;59375;53.216;5.728;2022-11-15T13:47:05;15.60;99.90
71155;DHT22;59375;53.216;5.728;2022-11-15T13:49:32;15.60;99.90
71155;DHT22;59375;53.216;5.728;2022-11-15T13:51:57;15.60;99.90
71155;DHT22;59375;53.216;5.728;2022-11-15T13:54:28;15.80;99.90
71155;DHT22;59375;53.216;5.728;2022-11-15T13:59:24;15.30;99.90
71155;DHT22;59375;53.216;5.728;2022-11-15T14:01:50;14.90;99.90
71155;DHT22;59375;53.216;5.728;2022-11-15T14:04:18;14.40;99.90
71155;DHT22;59375;53.216;5.728;2022-11-15T14:06:45;14.00;99.90
71155;DHT22;59375;53.216;5.728;2022-11-15T14:11:37;13.40;99.90
71155;DHT22;59375;53.216;5.728;2022-11-15T14:16:35;13.10;99.90
71155;DHT22;59375;53.216;5.728;2022-11-15T14:19:01;13.00;99.90
71155;DHT22;59375;53.216;5.728;2022-11-15T14:21:28;12.90;99.90
71155;DHT22;59375;53.216;5.728;2022-11-15T14:24:13;12.80;99.90
71155;DHT22;59375;53.216;5.728;2022-11-15T14:26:38;12.70;99.90
71155;DHT22;59375;53.216;5.728;2022-11-15T14:31:48;12.50;99.90
71155;DHT22;59375;53.216;5.728;2022-11-15T14:34:14;12.30;99.90
71155;DHT22;59375;53.216;5.728;2022-11-15T14:36:39;12.10;99.90
71155;DHT22;59375;53.216;5.728;2022-11-15T14:39:04;12.00;99.90
71155;DHT22;59375;53.216;5.728;2022-11-15T14:41:33;11.90;99.90
71155;DHT22;59375;53.216;5.728;2022-11-15T14:43:59;11.80;99.90
71155;DHT22;59375;53.216;5.728;2022-11-15T14:46:25;11.70;99.90
71155;DHT22;59375;53.216;5.728;2022-11-15T14:48:50;11.70;99.90
71155;DHT22;59375;53.216;5.728;2022-11-15T14:51:16;11.60;99.90
71155;DHT22;59375;53.216;5.728;2022-11-15T14:53:42;11.50;99.90
71155;DHT22;59375;53.216;5.728;2022-11-15T14:56:09;11.50;99.90
71155;DHT22;59375;53.216;5.728;2022-11-15T14:58:35;11.40;99.90
71155;DHT22;59375;53.216;5.728;2022-11-15T15:01:02;11.30;99.90
71155;DHT22;59375;53.216;5.728;2022-11-15T15:03:27;11.30;99.90
71155;DHT22;59375;53.216;5.728;2022-11-15T15:05:53;11.20;99.90
71155;DHT22;59375;53.216;5.728;2022-11-15T15:08:19;11.20;99.90
71155;DHT22;59375;53.216;5.728;2022-11-15T15:10:45;11.10;99.90
71155;DHT22;59375;53.216;5.728;2022-11-15T15:15:38;11.00;99.90
71155;DHT22;59375;53.216;5.728;2022-11-15T15:18:04;11.00;99.90
71155;DHT22;59375;53.216;5.728;2022-11-15T15:20:33;11.00;99.90
71155;DHT22;59375;53.216;5.728;2022-11-15T15:22:59;10.90;99.90
71155;DHT22;59375;53.216;5.728;2022-11-15T15:25:28;10.90;99.90
71155;DHT22;59375;53.216;5.728;2022-11-15T15:27:55;10.80;99.90
71155;DHT22;59375;53.216;5.728;2022-11-15T15:30:21;10.80;99.90
71155;DHT22;59375;53.216;5.728;2022-11-15T15:32:47;10.80;99.90
71155;DHT22;59375;53.216;5.728;2022-11-15T15:35:13;10.70;99.90
71155;DHT22;59375;53.216;5.728;2022-11-15T15:37:39;10.70;99.90
71155;DHT22;59375;53.216;5.728;2022-11-15T15:40:15;10.70;99.90
71155;DHT22;59375;53.216;5.728;2022-11-15T15:42:41;10.70;99.90
71155;DHT22;59375;53.216;5.728;2022-11-15T15:45:07;10.70;99.90
71155;DHT22;59375;53.216;5.728;2022-11-15T15:47:33;10.60;99.90
71155;DHT22;59375;53.216;5.728;2022-11-15T15:49:58;10.60;99.90
71155;DHT22;59375;53.216;5.728;2022-11-15T15:52:24;10.60;99.90
71155;DHT22;59375;53.216;5.728;2022-11-15T15:54:50;10.60;99.90
71155;DHT22;59375;53.216;5.728;2022-11-15T15:57:15;10.50;99.90
71155;DHT22;59375;53.216;5.728;2022-11-15T15:59:41;10.50;99.90
71155;DHT22;59375;53.216;5.728;2022-11-15T16:02:13;10.50;99.90
71155;DHT22;59375;53.216;5.728;2022-11-15T16:04:39;10.50;99.90
71155;DHT22;59375;53.216;5.728;2022-11-15T16:07:04;10.40;99.90
71155;DHT22;59375;53.216;5.728;2022-11-15T16:09:30;10.50;99.90
71155;DHT22;59375;53.216;5.728;2022-11-15T16:12:14;10.50;99.90
71155;DHT22;59375;53.216;5.728;2022-11-15T16:14:41;10.50;99.90
71155;DHT22;59375;53.216;5.728;2022-11-15T16:17:09;10.60;99.90
71155;DHT22;59375;53.216;5.728;2022-11-15T16:19:34;10.60;99.90
71155;DHT22;59375;53.216;5.728;2022-11-15T16:22:00;10.60;99.90
71155;DHT22;59375;53.216;5.728;2022-11-15T16:24:26;10.60;99.90
71155;DHT22;59375;53.216;5.728;2022-11-15T16:26:51;10.70;99.90
71155;DHT22;59375;53.216;5.728;2022-11-15T16:29:17;10.70;99.90
71155;DHT22;59375;53.216;5.728;2022-11-15T16:31:42;10.80;99.90
71155;DHT22;59375;53.216;5.728;2022-11-15T16:34:07;10.80;99.90
71155;DHT22;59375;53.216;5.728;2022-11-15T16:36:33;10.90;99.90
71155;DHT22;59375;53.216;5.728;2022-11-15T16:38:59;10.90;99.90
71155;DHT22;59375;53.216;5.728;2022-11-15T16:41:25;10.90;99.90
71155;DHT22;59375;53.216;5.728;2022-11-15T16:43:51;10.90;99.90
71155;DHT22;59375;53.216;5.728;2022-11-15T16:46:17;10.90;99.90
71155;DHT22;59375;53.216;5.728;2022-11-15T16:48:43;10.90;99.90
71155;DHT22;59375;53.216;5.728;2022-11-15T16:51:09;11.00;99.90
71155;DHT22;59375;53.216;5.728;2022-11-15T16:53:35;11.00;99.90
71155;DHT22;59375;53.216;5.728;2022-11-15T16:56:00;11.00;99.90
71155;DHT22;59375;53.216;5.728;2022-11-15T16:58:26;11.00;99.90